Time;durP1;ratioP1;P1;durP2;ratioP2;P2;SDS_P1;SDS_P2;PMS_P1;PMS_P2;Temp;Humidity;BMP_temperature;BMP_pressure;BME280_temperature;BME280_humidity;BME280_pressure;Samples;Min_cycle;Max_cycle;Signal;HPM_P1;HPM_P2
2023/01/09 00:01:02;;;;;;;;;;;;;;;11.84;nan;100125.81;5028244;28;19917;-33
2023/01/09 00:03:27;;;;;;;;;;;;;;;11.77;nan;100121.50;5018960;28;19928;-33
2023/01/09 00:05:53;;;;;;;;;;;;;;;11.73;nan;100123.13;5024801;28;20754;-33
2023/01/09 00:08:18;;;;;;;;;;;;;;;11.69;nan;100127.44;5027072;28;19989;-33
2023/01/09 00:10:44;;;;;;;;;;;;;;;11.65;nan;100126.34;5020382;28;19920;-33
2023/01/09 00:13:12;;;;;;;;;;;;;;;11.63;nan;100112.38;5025758;28;19917;-33
2023/01/09 00:15:38;;;;;;;;;;;;;;;11.62;nan;100113.47;5022692;28;20390;-33
2023/01/09 00:18:04;;;;;;;;;;;;;;;11.58;nan;100115.09;5025892;28;20181;-33
2023/01/09 00:20:29;;;;;;;;;;;;;;;11.59;nan;100095.22;5024591;28;20043;-33
2023/01/09 00:22:55;;;;;;;;;;;;;;;11.54;nan;100095.25;5023244;28;19921;-33
2023/01/09 00:25:21;;;;;;;;;;;;;;;11.56;nan;100098.47;5028786;28;20004;-33
2023/01/09 00:27:46;;;;;;;;;;;;;;;11.57;nan;100104.63;5022334;28;19921;-33
2023/01/09 00:30:12;;;;;;;;;;;;;;;11.56;nan;100092.28;5028839;28;19963;-33
2023/01/09 00:32:37;;;;;;;;;;;;;;;11.57;nan;100091.22;5022471;28;20363;-33
2023/01/09 00:35:03;;;;;;;;;;;;;;;11.55;nan;100077.28;5024679;28;20295;-33
2023/01/09 00:37:28;;;;;;;;;;;;;;;11.55;nan;100067.34;5025854;28;20354;-33
2023/01/09 00:39:54;;;;;;;;;;;;;;;11.43;nan;100078.34;5028726;28;19931;-32
2023/01/09 00:42:23;;;;;;;;;;;;;;;11.37;nan;100076.75;5022341;28;20387;-33
2023/01/09 00:44:51;;;;;;;;;;;;;;;11.34;nan;100090.69;5026546;28;19921;-33
2023/01/09 00:47:22;;;;;;;;;;;;;;;11.34;nan;100093.38;5026345;28;19923;-33
2023/01/09 00:49:49;;;;;;;;;;;;;;;11.32;nan;100081.31;5022099;28;19965;-33
2023/01/09 00:52:15;;;;;;;;;;;;;;;11.30;nan;100086.13;5026412;28;19959;-33
2023/01/09 00:54:41;;;;;;;;;;;;;;;11.30;nan;100078.06;5027743;28;20289;-33
2023/01/09 00:57:07;;;;;;;;;;;;;;;11.33;nan;100072.19;5023943;28;19921;-33
2023/01/09 00:59:33;;;;;;;;;;;;;;;11.33;nan;100082.94;5027182;28;20302;-32
2023/01/09 01:01:58;;;;;;;;;;;;;;;11.30;nan;100070.84;5024370;28;19932;-33
2023/01/09 01:09:51;;;;;;;;;;;;;;;11.24;nan;100079.97;5024544;28;19928;-32
2023/01/09 01:12:17;;;;;;;;;;;;;;;11.23;nan;100080.22;5028479;28;20290;-33
2023/01/09 01:14:42;;;;;;;;;;;;;;;11.20;nan;100077.03;5025921;28;19921;-33
2023/01/09 01:17:07;;;;;;;;;;;;;;;11.12;nan;100080.22;5026144;28;20006;-32
2023/01/09 01:19:33;;;;;;;;;;;;;;;11.11;nan;100075.13;5019422;28;19921;-33
2023/01/09 01:21:59;;;;;;;;;;;;;;;11.07;nan;100074.88;5020975;28;20416;-33
2023/01/09 01:24:24;;;;;;;;;;;;;;;11.06;nan;100080.50;5027909;28;20161;-32
2023/01/09 01:26:50;;;;;;;;;;;;;;;11.05;nan;100074.31;5027370;28;19921;-32
2023/01/09 01:29:15;;;;;;;;;;;;;;;11.09;nan;100078.06;5028154;28;19917;-32
2023/01/09 01:31:40;;;;;;;;;;;;;;;11.10;nan;100068.16;5020660;28;20020;-33
2023/01/09 01:34:06;;;;;;;;;;;;;;;11.13;nan;100072.97;5021074;28;20291;-32
2023/01/09 01:36:32;;;;;;;;;;;;;;;11.09;nan;100074.59;5018009;28;19972;-32
2023/01/09 01:38:57;;;;;;;;;;;;;;;11.08;nan;100071.09;5026331;28;19925;-32
2023/01/09 01:41:28;;;;;;;;;;;;;;;11.06;nan;100059.84;5030077;28;21375;-32
2023/01/09 01:43:55;;;;;;;;;;;;;;;11.06;nan;100054.50;5022356;28;19944;-33
2023/01/09 01:46:21;;;;;;;;;;;;;;;11.05;nan;100054.75;5032563;28;19917;-32
2023/01/09 01:48:48;;;;;;;;;;;;;;;11.08;nan;100049.66;5024690;28;20230;-32
2023/01/09 01:51:15;;;;;;;;;;;;;;;11.08;nan;100049.66;5025884;28;19921;-32
2023/01/09 01:53:44;;;;;;;;;;;;;;;11.09;nan;100048.59;5028115;28;19921;-34
2023/01/09 01:56:09;;;;;;;;;;;;;;;11.11;nan;100046.44;5028781;28;19928;-34
2023/01/09 01:58:37;;;;;;;;;;;;;;;11.12;nan;100045.38;5023214;28;19921;-35
2023/01/09 02:01:04;;;;;;;;;;;;;;;11.08;nan;100038.13;5029950;28;19917;-34
2023/01/09 02:03:29;;;;;;;;;;;;;;;11.01;nan;100027.69;5029671;28;19917;-34
2023/01/09 02:05:55;;;;;;;;;;;;;;;10.94;nan;100021.78;5030878;28;19917;-34
2023/01/09 02:08:21;;;;;;;;;;;;;;;10.93;nan;100012.13;5025721;28;19913;-35
2023/01/09 02:10:46;;;;;;;;;;;;;;;10.91;nan;100011.59;5023461;28;19933;-34
2023/01/09 02:13:12;;;;;;;;;;;;;;;10.90;nan;100018.03;5020993;28;20144;-34
2023/01/09 02:16:00;;;;;;;;;;;;;;;10.90;nan;100018.03;5029080;28;19948;-34
2023/01/09 02:18:31;;;;;;;;;;;;;;;10.92;nan;100018.56;5022093;28;19925;-35
2023/01/09 02:20:56;;;;;;;;;;;;;;;10.93;nan;100012.13;5031169;28;19961;-35
2023/01/09 02:23:24;;;;;;;;;;;;;;;10.95;nan;100011.84;5024980;28;20005;-34
2023/01/09 02:25:49;;;;;;;;;;;;;;;10.96;nan;100011.63;5028691;28;20298;-34
2023/01/09 02:28:21;;;;;;;;;;;;;;;10.97;nan;100020.47;5024550;28;19912;-34
2023/01/09 02:30:46;;;;;;;;;;;;;;;10.93;nan;99997.91;5021214;28;19928;-35
2023/01/09 02:33:24;;;;;;;;;;;;;;;10.90;nan;100005.44;5028616;28;19921;-35
2023/01/09 02:35:59;;;;;;;;;;;;;;;10.91;nan;100000.88;5019650;28;20006;-34
2023/01/09 02:38:34;;;;;;;;;;;;;;;10.91;nan;99995.50;5030120;28;20478;-35
2023/01/09 02:41:05;;;;;;;;;;;;;;;10.92;nan;99991.75;5026744;28;19967;-34
2023/01/09 02:43:31;;;;;;;;;;;;;;;10.91;nan;100000.88;5026197;28;19964;-35
2023/01/09 02:45:56;;;;;;;;;;;;;;;10.87;nan;99989.88;5029425;28;19964;-34
2023/01/09 02:48:22;;;;;;;;;;;;;;;10.83;nan;99990.69;5026378;28;19914;-35
2023/01/09 02:51:03;;;;;;;;;;;;;;;10.76;nan;99999.00;5023077;28;20549;-34
2023/01/09 02:53:32;;;;;;;;;;;;;;;10.74;nan;99989.63;5024824;28;19978;-35
2023/01/09 02:55:57;;;;;;;;;;;;;;;10.69;nan;99992.28;5025035;28;20004;-34
2023/01/09 02:58:41;;;;;;;;;;;;;;;10.65;nan;99985.88;5026589;28;20016;-34
2023/01/09 03:01:13;;;;;;;;;;;;;;;10.64;nan;99979.72;5023419;28;19963;-35
2023/01/09 03:03:57;;;;;;;;;;;;;;;10.67;nan;99979.16;5029617;28;19917;-34
2023/01/09 03:06:41;;;;;;;;;;;;;;;10.66;nan;99977.56;5026778;28;20153;-34
2023/01/09 03:09:15;;;;;;;;;;;;;;;10.64;nan;99973.53;5026765;28;19924;-34
2023/01/09 03:11:46;;;;;;;;;;;;;;;10.62;nan;99965.78;5028149;28;20401;-34
2023/01/09 03:14:15;;;;;;;;;;;;;;;10.62;nan;99976.50;5029519;28;19988;-34
2023/01/09 03:16:41;;;;;;;;;;;;;;;10.62;nan;99979.19;5029807;28;19928;-34
2023/01/09 03:19:09;;;;;;;;;;;;;;;10.58;nan;99978.06;5027633;28;19928;-34
2023/01/09 03:21:35;;;;;;;;;;;;;;;10.54;nan;99987.72;5022273;28;19960;-34
2023/01/09 03:24:01;;;;;;;;;;;;;;;10.51;nan;99991.75;5028952;28;19965;-35
2023/01/09 03:26:28;;;;;;;;;;;;;;;10.50;nan;99982.09;5023033;28;19921;-34
2023/01/09 03:28:53;;;;;;;;;;;;;;;10.51;nan;99980.22;5020451;28;19920;-34
2023/01/09 03:31:19;;;;;;;;;;;;;;;10.54;nan;99983.16;5025369;28;20305;-34
2023/01/09 03:33:44;;;;;;;;;;;;;;;10.56;nan;99982.91;5029777;28;19917;-34
2023/01/09 03:36:11;;;;;;;;;;;;;;;10.59;nan;99983.19;5028576;28;19913;-34
2023/01/09 03:38:36;;;;;;;;;;;;;;;10.65;nan;99973.28;5023557;28;20338;-34
2023/01/09 03:41:02;;;;;;;;;;;;;;;10.64;nan;99974.34;5028982;28;19913;-34
2023/01/09 03:43:27;;;;;;;;;;;;;;;10.67;nan;99981.84;5029706;28;20433;-35
2023/01/09 03:45:53;;;;;;;;;;;;;;;10.66;nan;99979.44;5029379;28;19990;-34
2023/01/09 03:48:18;;;;;;;;;;;;;;;10.63;nan;99977.31;5027397;28;19920;-34
2023/01/09 03:50:46;;;;;;;;;;;;;;;10.58;nan;99968.16;5029874;28;19971;-34
2023/01/09 03:53:12;;;;;;;;;;;;;;;10.55;nan;99966.03;5025872;28;19917;-34
2023/01/09 03:55:38;;;;;;;;;;;;;;;10.53;nan;99964.69;5035473;28;20306;-34
2023/01/09 03:58:03;;;;;;;;;;;;;;;10.51;nan;99956.13;5029413;28;19925;-35
2023/01/09 04:00:29;;;;;;;;;;;;;;;10.49;nan;99961.75;5029064;28;19921;-34
2023/01/09 04:02:54;;;;;;;;;;;;;;;10.49;nan;99961.75;5029902;28;19917;-35
2023/01/09 04:05:19;;;;;;;;;;;;;;;10.46;nan;99951.56;5022660;28;19917;-34
2023/01/09 04:07:45;;;;;;;;;;;;;;;10.45;nan;99960.69;5029850;28;19923;-34
2023/01/09 04:10:10;;;;;;;;;;;;;;;10.43;nan;99960.13;5026565;28;20417;-34
2023/01/09 04:12:35;;;;;;;;;;;;;;;10.42;nan;99958.53;5025829;28;19917;-34
2023/01/09 04:15:01;;;;;;;;;;;;;;;10.39;nan;99953.69;5027782;28;20071;-34
2023/01/09 04:17:26;;;;;;;;;;;;;;;10.43;nan;99954.78;5026035;28;19947;-35
2023/01/09 04:19:51;;;;;;;;;;;;;;;10.41;nan;99959.59;5024842;28;19921;-33
2023/01/09 04:22:17;;;;;;;;;;;;;;;10.38;nan;99960.09;5024636;28;19924;-34
2023/01/09 04:24:42;;;;;;;;;;;;;;;10.39;nan;99958.25;5016996;28;19917;-33
2023/01/09 04:27:07;;;;;;;;;;;;;;;10.37;nan;99958.50;5023265;28;19963;-35
2023/01/09 04:29:33;;;;;;;;;;;;;;;10.40;nan;99957.97;5030877;28;19925;-34
2023/01/09 04:31:58;;;;;;;;;;;;;;;10.40;nan;99960.66;5023276;28;20357;-34
2023/01/09 04:34:24;;;;;;;;;;;;;;;10.44;nan;99951.03;5027759;28;19991;-34
2023/01/09 04:36:53;;;;;;;;;;;;;;;10.45;nan;99947.28;5021700;28;19940;-34
2023/01/09 04:39:19;;;;;;;;;;;;;;;10.45;nan;99951.84;5021033;28;19991;-33
2023/01/09 04:41:47;;;;;;;;;;;;;;;10.48;nan;99952.09;5028123;28;19921;-34
2023/01/09 04:44:13;;;;;;;;;;;;;;;10.50;nan;99949.97;5016130;28;19971;-33
2023/01/09 04:46:38;;;;;;;;;;;;;;;10.54;nan;99947.53;5019273;28;20323;-35
2023/01/09 04:49:04;;;;;;;;;;;;;;;10.56;nan;99942.72;5018687;28;19964;-34
2023/01/09 04:51:29;;;;;;;;;;;;;;;10.57;nan;99942.44;5028171;28;20007;-35
2023/01/09 04:53:54;;;;;;;;;;;;;;;10.60;nan;99946.50;5027581;28;19917;-34
2023/01/09 04:56:20;;;;;;;;;;;;;;;10.64;nan;99944.88;5027320;28;19963;-34
2023/01/09 04:58:45;;;;;;;;;;;;;;;10.65;nan;99943.00;5027890;28;19921;-34
2023/01/09 05:01:10;;;;;;;;;;;;;;;10.64;nan;99944.88;5021571;28;19924;-35
2023/01/09 05:03:36;;;;;;;;;;;;;;;10.61;nan;99932.03;5015646;28;19918;-34
2023/01/09 05:06:01;;;;;;;;;;;;;;;10.62;nan;99930.16;5016001;28;19923;-34
2023/01/09 05:08:26;;;;;;;;;;;;;;;10.64;nan;99933.38;5027498;28;19999;-33
2023/01/09 05:10:52;;;;;;;;;;;;;;;10.59;nan;99924.25;5028693;28;19924;-34
2023/01/09 05:13:17;;;;;;;;;;;;;;;10.58;nan;99925.31;5014907;28;20445;-34
2023/01/09 05:15:42;;;;;;;;;;;;;;;10.59;nan;99915.41;5027383;28;20336;-34
2023/01/09 05:18:08;;;;;;;;;;;;;;;10.62;nan;99914.09;5026780;28;19917;-34
2023/01/09 05:20:33;;;;;;;;;;;;;;;10.65;nan;99918.91;5025250;28;19922;-34
2023/01/09 05:22:58;;;;;;;;;;;;;;;10.69;nan;99912.72;5023454;28;19921;-34
2023/01/09 05:25:24;;;;;;;;;;;;;;;10.70;nan;99918.88;5026167;28;19947;-34
2023/01/09 05:27:49;;;;;;;;;;;;;;;10.72;nan;99909.50;5027202;28;19921;-34
2023/01/09 05:30:14;;;;;;;;;;;;;;;10.73;nan;99910.31;5027314;28;20071;-34
2023/01/09 05:32:40;;;;;;;;;;;;;;;10.73;nan;99915.66;5024368;28;19924;-34
2023/01/09 05:35:05;;;;;;;;;;;;;;;10.72;nan;99922.91;5022952;28;19917;-35
2023/01/09 05:37:31;;;;;;;;;;;;;;;10.72;nan;99917.53;5013083;28;20383;-34
2023/01/09 05:39:56;;;;;;;;;;;;;;;10.72;nan;99908.69;5027014;28;19975;-35
2023/01/09 05:42:21;;;;;;;;;;;;;;;10.75;nan;99900.94;5025775;28;20184;-34
2023/01/09 05:44:47;;;;;;;;;;;;;;;10.78;nan;99899.59;5027194;28;19925;-35
2023/01/09 05:47:12;;;;;;;;;;;;;;;10.80;nan;99886.75;5026396;28;19923;-34
2023/01/09 05:49:37;;;;;;;;;;;;;;;10.81;nan;99873.06;5026662;28;20028;-35
2023/01/09 05:52:03;;;;;;;;;;;;;;;10.86;nan;99872.25;5025921;28;19917;-34
2023/01/09 05:54:29;;;;;;;;;;;;;;;10.89;nan;99871.69;5021219;28;20020;-34
2023/01/09 05:56:54;;;;;;;;;;;;;;;10.89;nan;99869.03;5023068;28;20031;-34
2023/01/09 05:59:19;;;;;;;;;;;;;;;10.87;nan;99871.19;5016880;28;20314;-34
2023/01/09 06:01:45;;;;;;;;;;;;;;;10.84;nan;99864.47;5022776;28;19917;-34
2023/01/09 06:04:10;;;;;;;;;;;;;;;10.83;nan;99854.84;5020635;28;19928;-34
2023/01/09 06:06:36;;;;;;;;;;;;;;;10.86;nan;99853.50;5020503;28;19928;-33
2023/01/09 06:09:02;;;;;;;;;;;;;;;10.92;nan;99862.31;5017054;28;20385;-34
2023/01/09 06:11:27;;;;;;;;;;;;;;;10.90;nan;99865.28;5023200;28;19925;-34
2023/01/09 06:13:53;;;;;;;;;;;;;;;10.89;nan;99869.03;5023088;28;20296;-34
2023/01/09 06:16:18;;;;;;;;;;;;;;;10.84;nan;99871.72;5020093;28;19917;-33
2023/01/09 06:18:44;;;;;;;;;;;;;;;10.85;nan;99867.97;5017595;28;19944;-34
2023/01/09 06:21:09;;;;;;;;;;;;;;;10.86;nan;99856.97;5022330;28;19941;-34
2023/01/09 06:23:34;;;;;;;;;;;;;;;10.90;nan;99851.88;5019296;28;19924;-34
2023/01/09 06:26:00;;;;;;;;;;;;;;;10.94;nan;99850.25;5027078;28;19927;-34
2023/01/09 06:28:25;;;;;;;;;;;;;;;10.98;nan;99856.69;5022044;28;20177;-35
2023/01/09 06:30:51;;;;;;;;;;;;;;;10.93;nan;99856.69;5024375;28;19917;-34
2023/01/09 06:33:17;;;;;;;;;;;;;;;10.90;nan;99852.66;5024941;28;20358;-34
2023/01/09 06:35:42;;;;;;;;;;;;;;;10.92;nan;99860.44;5023888;28;19971;-35
2023/01/09 06:38:07;;;;;;;;;;;;;;;10.97;nan;99862.31;5022482;28;20413;-33
2023/01/09 06:40:33;;;;;;;;;;;;;;;10.99;nan;99865.53;5024609;28;19952;-34
2023/01/09 06:42:58;;;;;;;;;;;;;;;11.04;nan;99870.88;5024366;28;19971;-34
2023/01/09 06:45:23;;;;;;;;;;;;;;;11.01;nan;99872.22;5028874;28;19917;-33
2023/01/09 06:47:49;;;;;;;;;;;;;;;11.04;nan;99874.34;5026827;28;19952;-33
2023/01/09 06:50:14;;;;;;;;;;;;;;;11.06;nan;99872.19;5024986;28;20276;-33
2023/01/09 06:52:40;;;;;;;;;;;;;;;11.07;nan;99868.44;5026336;28;19924;-34
2023/01/09 06:55:06;;;;;;;;;;;;;;;11.07;nan;99865.75;5024371;28;19920;-35
2023/01/09 06:57:31;;;;;;;;;;;;;;;11.06;nan;99872.19;5025854;28;19932;-35
2023/01/09 06:59:56;;;;;;;;;;;;;;;11.05;nan;99872.47;5024320;28;20442;-34
2023/01/09 07:02:22;;;;;;;;;;;;;;;11.04;nan;99871.69;5024999;28;19925;-33
2023/01/09 07:04:47;;;;;;;;;;;;;;;11.04;nan;99874.34;5025402;28;19967;-34
2023/01/09 07:07:13;;;;;;;;;;;;;;;11.08;nan;99871.94;5026177;28;19929;-33
2023/01/09 07:09:38;;;;;;;;;;;;;;;11.10;nan;99870.56;5026255;28;20011;-34
2023/01/09 07:12:04;;;;;;;;;;;;;;;11.12;nan;99876.47;5020213;28;19959;-33
2023/01/09 07:14:29;;;;;;;;;;;;;;;11.12;nan;99868.41;5024833;28;19921;-34
2023/01/09 07:16:54;;;;;;;;;;;;;;;11.13;nan;99875.41;5025589;28;19921;-33
2023/01/09 07:19:20;;;;;;;;;;;;;;;11.14;nan;99862.81;5026419;28;19944;-34
2023/01/09 07:21:45;;;;;;;;;;;;;;;11.15;nan;99870.59;5023537;28;20460;-34
2023/01/09 07:24:10;;;;;;;;;;;;;;;11.17;nan;99860.38;5024087;28;20359;-35
2023/01/09 07:26:36;;;;;;;;;;;;;;;11.19;nan;99863.59;5026673;28;19917;-33
2023/01/09 07:29:01;;;;;;;;;;;;;;;11.20;nan;99861.72;5026471;28;19917;-34
2023/01/09 07:31:26;;;;;;;;;;;;;;;11.24;nan;99859.28;5028700;28;19931;-33
2023/01/09 07:33:52;;;;;;;;;;;;;;;11.22;nan;99856.88;5026234;28;20266;-35
2023/01/09 07:36:17;;;;;;;;;;;;;;;11.22;nan;99861.44;5023563;28;20077;-34
2023/01/09 07:38:42;;;;;;;;;;;;;;;11.23;nan;99858.47;5020491;28;19921;-34
2023/01/09 07:41:08;;;;;;;;;;;;;;;11.28;nan;99854.97;5021423;28;19979;-34
2023/01/09 07:43:33;;;;;;;;;;;;;;;11.26;nan;99857.94;5022299;28;19928;-34
2023/01/09 07:45:59;;;;;;;;;;;;;;;11.29;nan;99860.06;5021549;28;20379;-34
2023/01/09 07:48:24;;;;;;;;;;;;;;;11.32;nan;99861.41;5021392;28;19917;-33
2023/01/09 07:50:49;;;;;;;;;;;;;;;11.33;nan;99860.34;5020299;28;20590;-33
2023/01/09 07:53:15;;;;;;;;;;;;;;;11.31;nan;99852.56;5015533;28;19972;-35
2023/01/09 07:55:41;;;;;;;;;;;;;;;11.31;nan;99849.06;5056836;22;20440;-33
2023/01/09 07:58:06;;;;;;;;;;;;;;;11.33;nan;99846.94;5048054;28;20015;-33
2023/01/09 08:00:32;;;;;;;;;;;;;;;11.36;nan;99839.13;5042122;28;20563;-33
2023/01/09 08:02:57;;;;;;;;;;;;;;;11.39;nan;99843.13;5046239;28;20229;-33
2023/01/09 08:05:22;;;;;;;;;;;;;;;11.40;nan;99845.53;5030971;28;19913;-33
2023/01/09 08:07:50;;;;;;;;;;;;;;;11.38;nan;99844.22;5026489;28;20063;-33
2023/01/09 08:10:18;;;;;;;;;;;;;;;11.41;nan;99846.34;5020305;28;19917;-33
2023/01/09 08:12:44;;;;;;;;;;;;;;;11.42;nan;99850.63;5021439;28;19963;-32
2023/01/09 08:15:09;;;;;;;;;;;;;;;11.40;nan;99852.78;5027805;28;19949;-33
2023/01/09 08:17:35;;;;;;;;;;;;;;;11.42;nan;99848.75;5027201;28;19913;-33
2023/01/09 08:20:01;;;;;;;;;;;;;;;11.46;nan;99855.16;5027610;28;19917;-32
2023/01/09 08:22:26;;;;;;;;;;;;;;;11.50;nan;99852.75;5029452;28;19921;-32
2023/01/09 08:24:51;;;;;;;;;;;;;;;11.51;nan;99843.63;5018819;28;20394;-32
2023/01/09 08:27:16;;;;;;;;;;;;;;;11.49;nan;99845.78;5019816;28;20383;-33
2023/01/09 08:29:42;;;;;;;;;;;;;;;11.47;nan;99842.53;5024787;28;20445;-33
2023/01/09 08:32:07;;;;;;;;;;;;;;;11.47;nan;99843.34;5025759;28;20626;-33
2023/01/09 08:34:33;;;;;;;;;;;;;;;11.47;nan;99842.53;5026484;28;19983;-32
2023/01/09 08:36:59;;;;;;;;;;;;;;;11.49;nan;99835.06;5016273;28;19963;-32
2023/01/09 08:39:24;;;;;;;;;;;;;;;11.48;nan;99844.16;5028712;28;20046;-32
2023/01/09 08:47:19;;;;;;;;;;;;;;;11.56;nan;99845.47;5017914;28;19979;-32
2023/01/09 08:49:45;;;;;;;;;;;;;;;11.59;nan;99850.28;5023077;28;20379;-33
2023/01/09 08:52:12;;;;;;;;;;;;;;;11.65;nan;99843.78;5024612;28;19917;-33
2023/01/09 08:54:38;;;;;;;;;;;;;;;11.61;nan;99843.56;5021773;28;19917;-32
2023/01/09 08:57:04;;;;;;;;;;;;;;;11.60;nan;99841.16;5024985;28;20259;-32
2023/01/09 08:59:29;;;;;;;;;;;;;;;11.61;nan;99840.88;5024147;28;19927;-33
2023/01/09 09:01:57;;;;;;;;;;;;;;;11.66;nan;99848.88;5023614;28;20207;-32
2023/01/09 09:04:22;;;;;;;;;;;;;;;11.72;nan;99842.44;5022224;28;20028;-33
2023/01/09 09:06:48;;;;;;;;;;;;;;;11.76;nan;99842.66;5021400;28;20318;-33
2023/01/09 09:09:13;;;;;;;;;;;;;;;11.79;nan;99851.00;5026198;28;19921;-33
2023/01/09 09:11:39;;;;;;;;;;;;;;;11.83;nan;99847.75;5020040;28;20076;-32
2023/01/09 09:15:11;;;;;;;;;;;;;;;11.85;nan;99857.16;5024738;28;19956;-32
2023/01/09 09:16:49;;;;;;;;;;;;;;;11.86;nan;99857.97;5021306;28;19925;-33
2023/01/09 09:19:15;;;;;;;;;;;;;;;11.90;nan;99872.41;5017169;28;19921;-32
2023/01/09 09:21:40;;;;;;;;;;;;;;;11.91;nan;99869.44;5025544;28;19932;-33
2023/01/09 09:24:05;;;;;;;;;;;;;;;11.93;nan;99866.50;5019721;28;19917;-33
2023/01/09 09:26:31;;;;;;;;;;;;;;;11.95;nan;99869.69;5021456;28;19924;-33
2023/01/09 09:28:57;;;;;;;;;;;;;;;11.97;nan;99873.69;5017460;28;19921;-33
2023/01/09 09:31:23;;;;;;;;;;;;;;;11.95;nan;99872.38;5028623;28;20479;-33
2023/01/09 09:33:48;;;;;;;;;;;;;;;11.93;nan;99866.50;5027574;28;19924;-33
2023/01/09 09:36:13;;;;;;;;;;;;;;;11.91;nan;99865.97;5025098;28;19948;-32
2023/01/09 09:38:39;;;;;;;;;;;;;;;11.88;nan;99869.22;5021012;28;19927;-33
2023/01/09 09:47:10;;;;;;;;;;;;;;;11.87;nan;99863.03;5017944;28;20375;-33
2023/01/09 09:49:51;;;;;;;;;;;;;;;11.90;nan;99864.38;5023253;28;19920;-32
2023/01/09 09:52:28;;;;;;;;;;;;;;;11.89;nan;99855.50;5022981;28;20136;-33
2023/01/09 09:54:55;;;;;;;;;;;;;;;11.87;nan;99854.19;5026272;28;19968;-33
2023/01/09 09:57:24;;;;;;;;;;;;;;;11.89;nan;99847.47;5016912;28;20413;-33
2023/01/09 09:59:51;;;;;;;;;;;;;;;11.98;nan;99844.97;5025714;28;20395;-33
2023/01/09 10:02:19;;;;;;;;;;;;;;;12.06;nan;99844.41;5028869;28;20186;-33
2023/01/09 10:04:47;;;;;;;;;;;;;;;12.10;nan;99845.44;5028126;28;20272;-33
2023/01/09 10:07:20;;;;;;;;;;;;;;;12.09;nan;99851.88;5030576;28;20286;-33
2023/01/09 10:09:53;;;;;;;;;;;;;;;12.11;nan;99844.34;5029788;28;19967;-33
2023/01/09 10:12:27;;;;;;;;;;;;;;;12.11;nan;99844.34;5019958;28;19924;-33
2023/01/09 10:14:54;;;;;;;;;;;;;;;12.13;nan;99846.75;5023703;28;19925;-33
2023/01/09 10:17:20;;;;;;;;;;;;;;;12.17;nan;99842.41;5021238;28;19956;-33
2023/01/09 10:19:54;;;;;;;;;;;;;;;12.24;nan;99845.59;5029325;28;19972;-33
2023/01/09 10:22:19;;;;;;;;;;;;;;;12.25;nan;99841.84;5023681;28;20505;-33
2023/01/09 10:24:54;;;;;;;;;;;;;;;12.25;nan;99841.84;5029276;28;19921;-33
2023/01/09 10:27:37;;;;;;;;;;;;;;;12.23;nan;99852.84;5023644;28;19921;-33
2023/01/09 10:30:23;;;;;;;;;;;;;;;12.26;nan;99844.25;5026069;28;19922;-33
2023/01/09 10:33:17;;;;;;;;;;;;;;;12.32;nan;99850.34;5026009;28;19917;-33
2023/01/09 10:35:45;;;;;;;;;;;;;;;12.36;nan;99837.97;4996685;28;19922;-33
2023/01/09 10:38:14;;;;;;;;;;;;;;;12.40;nan;99849.78;5025832;28;20368;-33
2023/01/09 10:40:45;;;;;;;;;;;;;;;12.46;nan;99847.84;5022601;28;19924;-33
2023/01/09 10:43:19;;;;;;;;;;;;;;;12.52;nan;99849.38;5029815;28;19968;-33
2023/01/09 10:45:52;;;;;;;;;;;;;;;12.52;nan;99835.94;5027724;28;20015;-33
2023/01/09 10:48:53;;;;;;;;;;;;;;;12.60;nan;99844.22;5021605;28;19921;-33
2023/01/09 10:51:20;;;;;;;;;;;;;;;12.61;nan;99842.31;4998272;28;19921;-33
2023/01/09 10:53:48;;;;;;;;;;;;;;;12.63;nan;99850.91;4961584;28;1912314;-34
2023/01/09 10:56:19;;;;;;;;;;;;;;;12.65;nan;99851.41;5030634;28;19987;-33
2023/01/09 10:58:44;;;;;;;;;;;;;;;12.68;nan;99846.28;5024888;28;19963;-33
2023/01/09 11:01:10;;;;;;;;;;;;;;;12.71;nan;99855.66;5027424;28;19960;-33
2023/01/09 11:03:37;;;;;;;;;;;;;;;12.73;nan;99858.06;5025603;28;20294;-33
2023/01/09 11:06:03;;;;;;;;;;;;;;;12.74;nan;99852.38;5031616;28;20318;-33
2023/01/09 11:08:28;;;;;;;;;;;;;;;12.80;nan;99853.97;5029808;28;20019;-33
2023/01/09 11:10:55;;;;;;;;;;;;;;;12.80;nan;99859.34;5028693;28;20012;-33
2023/01/09 11:13:22;;;;;;;;;;;;;;;12.83;nan;99857.97;5030789;28;19987;-33
2023/01/09 11:16:03;;;;;;;;;;;;;;;12.86;nan;99852.81;5030841;28;20110;-33
2023/01/09 11:18:28;;;;;;;;;;;;;;;12.86;nan;99842.06;5030159;28;20367;-33
2023/01/09 11:20:54;;;;;;;;;;;;;;;12.89;nan;99851.44;5030189;28;19963;-33
2023/01/09 11:23:27;;;;;;;;;;;;;;;12.91;nan;99852.75;5026299;28;19956;-33
2023/01/09 11:25:53;;;;;;;;;;;;;;;12.95;nan;99848.44;5027539;28;20513;-33
2023/01/09 11:28:19;;;;;;;;;;;;;;;13.02;nan;99856.16;5028660;28;20379;-33
2023/01/09 11:30:54;;;;;;;;;;;;;;;13.03;nan;99860.44;5022813;28;19930;-33
2023/01/09 11:33:24;;;;;;;;;;;;;;;13.01;nan;99860.72;5027261;28;19923;-33
2023/01/09 11:35:55;;;;;;;;;;;;;;;13.04;nan;99861.25;5025609;28;19928;-33
2023/01/09 11:38:20;;;;;;;;;;;;;;;13.04;nan;99864.72;5029879;28;20282;-33
2023/01/09 11:40:55;;;;;;;;;;;;;;;13.06;nan;99859.06;5026433;28;19917;-33
2023/01/09 11:43:20;;;;;;;;;;;;;;;13.04;nan;99867.41;5030137;28;19917;-33
2023/01/09 11:45:48;;;;;;;;;;;;;;;13.05;nan;99868.22;5024841;28;19920;-33
2023/01/09 11:48:17;;;;;;;;;;;;;;;13.04;nan;99872.78;5026621;28;19921;-33
2023/01/09 11:50:51;;;;;;;;;;;;;;;13.07;nan;99874.09;5023056;28;19963;-33
2023/01/09 11:53:18;;;;;;;;;;;;;;;13.04;nan;99874.69;5029817;28;19978;-33
2023/01/09 11:55:44;;;;;;;;;;;;;;;13.04;nan;99872.00;5028815;28;19947;-33
2023/01/09 11:58:15;;;;;;;;;;;;;;;13.03;nan;99865.81;5025555;28;20167;-33
2023/01/09 12:00:45;;;;;;;;;;;;;;;13.03;nan;99873.88;5020316;28;19917;-33
2023/01/09 12:03:41;;;;;;;;;;;;;;;13.01;nan;99871.47;5022901;28;20351;-33
2023/01/09 12:06:25;;;;;;;;;;;;;;;12.99;nan;99870.97;5020467;28;20513;-33
2023/01/09 12:09:03;;;;;;;;;;;;;;;13.01;nan;99876.06;5027292;28;20697;-33
2023/01/09 12:11:42;;;;;;;;;;;;;;;13.07;nan;99880.28;5021993;28;19928;-33
2023/01/09 12:14:21;;;;;;;;;;;;;;;13.08;nan;99878.41;5024544;28;19987;-33
2023/01/09 12:16:52;;;;;;;;;;;;;;;13.13;nan;99881.06;5025841;28;20852;-33
2023/01/09 12:19:17;;;;;;;;;;;;;;;13.18;nan;99883.72;5024736;28;20393;-33
2023/01/09 12:21:48;;;;;;;;;;;;;;;13.24;nan;99885.25;5010915;28;20177;-33
2023/01/09 12:24:43;;;;;;;;;;;;;;;13.22;nan;99887.44;5023523;28;19925;-33
2023/01/09 12:27:15;;;;;;;;;;;;;;;13.30;nan;99884.13;4997872;28;19929;-33
2023/01/09 12:29:40;;;;;;;;;;;;;;;13.30;nan;99879.53;5017734;28;19917;-33
2023/01/09 12:32:24;;;;;;;;;;;;;;;13.34;nan;99885.16;5024770;28;19983;-33
2023/01/09 12:35:08;;;;;;;;;;;;;;;13.45;nan;99880.41;5023909;28;19924;-33
2023/01/09 12:37:33;;;;;;;;;;;;;;;13.45;nan;99875.84;5019270;28;19923;-33
2023/01/09 12:40:05;;;;;;;;;;;;;;;13.50;nan;99888.47;5020962;28;19921;-33
2023/01/09 12:42:39;;;;;;;;;;;;;;;13.53;nan;99887.88;5021768;28;19921;-33
2023/01/09 12:45:14;;;;;;;;;;;;;;;13.53;nan;99890.56;5024874;28;19925;-33
2023/01/09 12:47:47;;;;;;;;;;;;;;;13.46;nan;99893.59;5021479;28;19925;-33
2023/01/09 12:50:13;;;;;;;;;;;;;;;13.50;nan;99893.84;5025141;28;19920;-33
2023/01/09 12:52:40;;;;;;;;;;;;;;;13.56;nan;99896.16;5017794;28;19932;-33
2023/01/09 12:55:26;;;;;;;;;;;;;;;13.51;nan;99895.44;5013119;28;19925;-33
2023/01/09 12:57:53;;;;;;;;;;;;;;;13.52;nan;99895.16;5019703;28;20472;-33
2023/01/09 13:00:25;;;;;;;;;;;;;;;13.52;nan;99897.84;5020313;28;20020;-33
2023/01/09 13:03:04;;;;;;;;;;;;;;;13.56;nan;99904.25;5018100;28;20020;-33
2023/01/09 13:05:34;;;;;;;;;;;;;;;13.54;nan;99911.81;5015935;28;19925;-33
2023/01/09 13:08:02;;;;;;;;;;;;;;;13.54;nan;99917.19;5023028;28;20449;-33
2023/01/09 13:10:32;;;;;;;;;;;;;;;13.53;nan;99926.34;5019534;28;19980;-33
2023/01/09 13:13:05;;;;;;;;;;;;;;;13.50;nan;99916.16;5020219;28;19917;-33
2023/01/09 13:15:33;;;;;;;;;;;;;;;13.56;nan;99917.69;5021353;28;20008;-33
2023/01/09 13:18:19;;;;;;;;;;;;;;;13.60;nan;99918.72;5020956;28;19935;-33
2023/01/09 13:20:57;;;;;;;;;;;;;;;13.63;nan;99916.53;5022922;28;19948;-33
2023/01/09 13:23:25;;;;;;;;;;;;;;;13.66;nan;99908.72;5015778;28;19925;-33
2023/01/09 13:25:53;;;;;;;;;;;;;;;13.67;nan;99913.00;5016700;28;19960;-33